sensor_id;sensor_type;location;lat;lon;timestamp;P1;durP1;ratioP1;P2;durP2;ratioP2
36855;SDS011;22788;51.434;6.786;2023-02-07T00:00:00;20.07;;;10.87;;
36855;SDS011;22788;51.434;6.786;2023-02-07T00:02:26;20.97;;;12.30;;
36855;SDS011;22788;51.434;6.786;2023-02-07T00:04:52;21.37;;;11.20;;
36855;SDS011;22788;51.434;6.786;2023-02-07T00:07:19;17.57;;;10.60;;
36855;SDS011;22788;51.434;6.786;2023-02-07T00:09:46;22.27;;;11.90;;
36855;SDS011;22788;51.434;6.786;2023-02-07T00:12:13;20.97;;;11.57;;
36855;SDS011;22788;51.434;6.786;2023-02-07T00:14:39;22.63;;;11.77;;
36855;SDS011;22788;51.434;6.786;2023-02-07T00:17:05;20.03;;;10.83;;
36855;SDS011;22788;51.434;6.786;2023-02-07T00:19:32;21.97;;;11.50;;
36855;SDS011;22788;51.434;6.786;2023-02-07T00:21:58;18.73;;;11.43;;
36855;SDS011;22788;51.434;6.786;2023-02-07T00:24:24;18.67;;;11.27;;
36855;SDS011;22788;51.434;6.786;2023-02-07T00:26:52;19.30;;;11.47;;
36855;SDS011;22788;51.434;6.786;2023-02-07T00:29:18;19.17;;;11.17;;
36855;SDS011;22788;51.434;6.786;2023-02-07T00:31:45;20.20;;;11.77;;
36855;SDS011;22788;51.434;6.786;2023-02-07T00:34:11;21.53;;;12.17;;
36855;SDS011;22788;51.434;6.786;2023-02-07T00:36:38;19.20;;;12.13;;
36855;SDS011;22788;51.434;6.786;2023-02-07T00:39:06;16.27;;;11.30;;
36855;SDS011;22788;51.434;6.786;2023-02-07T00:41:33;17.87;;;10.70;;
36855;SDS011;22788;51.434;6.786;2023-02-07T00:44:00;22.13;;;12.10;;
36855;SDS011;22788;51.434;6.786;2023-02-07T00:46:27;22.30;;;13.00;;
36855;SDS011;22788;51.434;6.786;2023-02-07T00:48:53;20.40;;;11.73;;
36855;SDS011;22788;51.434;6.786;2023-02-07T00:51:20;15.67;;;10.07;;
36855;SDS011;22788;51.434;6.786;2023-02-07T00:53:46;18.23;;;11.60;;
36855;SDS011;22788;51.434;6.786;2023-02-07T00:56:13;19.43;;;12.10;;
36855;SDS011;22788;51.434;6.786;2023-02-07T00:58:39;22.37;;;11.03;;
36855;SDS011;22788;51.434;6.786;2023-02-07T01:01:07;21.23;;;11.80;;
36855;SDS011;22788;51.434;6.786;2023-02-07T01:03:33;21.90;;;10.90;;
36855;SDS011;22788;51.434;6.786;2023-02-07T01:05:59;20.33;;;11.10;;
36855;SDS011;22788;51.434;6.786;2023-02-07T01:08:26;21.20;;;10.97;;
36855;SDS011;22788;51.434;6.786;2023-02-07T01:10:52;20.60;;;12.07;;
36855;SDS011;22788;51.434;6.786;2023-02-07T01:13:18;20.67;;;12.10;;
36855;SDS011;22788;51.434;6.786;2023-02-07T01:15:45;17.70;;;11.87;;
36855;SDS011;22788;51.434;6.786;2023-02-07T01:18:14;22.90;;;11.73;;
36855;SDS011;22788;51.434;6.786;2023-02-07T01:20:40;21.40;;;11.60;;
36855;SDS011;22788;51.434;6.786;2023-02-07T01:23:07;19.83;;;10.73;;
36855;SDS011;22788;51.434;6.786;2023-02-07T01:25:33;17.40;;;10.83;;
36855;SDS011;22788;51.434;6.786;2023-02-07T01:27:59;18.20;;;11.13;;
36855;SDS011;22788;51.434;6.786;2023-02-07T01:30:26;22.60;;;11.67;;
36855;SDS011;22788;51.434;6.786;2023-02-07T01:32:52;19.37;;;10.67;;
36855;SDS011;22788;51.434;6.786;2023-02-07T01:35:20;21.27;;;11.87;;
36855;SDS011;22788;51.434;6.786;2023-02-07T01:37:46;20.40;;;12.33;;
36855;SDS011;22788;51.434;6.786;2023-02-07T01:40:12;19.50;;;10.60;;
36855;SDS011;22788;51.434;6.786;2023-02-07T01:42:39;22.87;;;11.40;;
36855;SDS011;22788;51.434;6.786;2023-02-07T01:45:11;21.53;;;11.73;;
36855;SDS011;22788;51.434;6.786;2023-02-07T01:47:40;19.03;;;11.37;;
36855;SDS011;22788;51.434;6.786;2023-02-07T01:50:07;20.37;;;11.57;;
36855;SDS011;22788;51.434;6.786;2023-02-07T01:52:35;24.00;;;11.77;;
36855;SDS011;22788;51.434;6.786;2023-02-07T01:55:03;21.83;;;12.00;;
36855;SDS011;22788;51.434;6.786;2023-02-07T01:57:30;20.43;;;11.77;;
36855;SDS011;22788;51.434;6.786;2023-02-07T01:59:57;20.87;;;11.90;;
36855;SDS011;22788;51.434;6.786;2023-02-07T02:02:25;19.90;;;11.60;;
36855;SDS011;22788;51.434;6.786;2023-02-07T02:04:52;20.43;;;11.77;;
36855;SDS011;22788;51.434;6.786;2023-02-07T02:07:19;22.33;;;12.03;;
36855;SDS011;22788;51.434;6.786;2023-02-07T02:09:48;19.87;;;11.37;;
36855;SDS011;22788;51.434;6.786;2023-02-07T02:12:22;22.93;;;11.63;;
36855;SDS011;22788;51.434;6.786;2023-02-07T02:14:54;21.60;;;11.13;;
36855;SDS011;22788;51.434;6.786;2023-02-07T02:17:23;19.83;;;10.73;;
36855;SDS011;22788;51.434;6.786;2023-02-07T02:22:59;18.50;;;10.67;;
36855;SDS011;22788;51.434;6.786;2023-02-07T02:31:10;20.33;;;10.83;;
36855;SDS011;22788;51.434;6.786;2023-02-07T02:33:44;20.17;;;11.10;;
36855;SDS011;22788;51.434;6.786;2023-02-07T02:36:16;19.00;;;11.37;;
36855;SDS011;22788;51.434;6.786;2023-02-07T02:38:48;19.63;;;11.80;;
36855;SDS011;22788;51.434;6.786;2023-02-07T02:41:16;17.77;;;11.00;;
36855;SDS011;22788;51.434;6.786;2023-02-07T02:43:45;20.50;;;11.70;;
36855;SDS011;22788;51.434;6.786;2023-02-07T02:46:13;19.77;;;11.23;;
36855;SDS011;22788;51.434;6.786;2023-02-07T02:48:40;22.13;;;10.30;;
36855;SDS011;22788;51.434;6.786;2023-02-07T02:51:08;18.57;;;10.93;;
36855;SDS011;22788;51.434;6.786;2023-02-07T02:53:35;18.77;;;10.60;;
36855;SDS011;22788;51.434;6.786;2023-02-07T02:58:47;19.83;;;11.13;;
36855;SDS011;22788;51.434;6.786;2023-02-07T03:01:18;18.33;;;10.60;;
36855;SDS011;22788;51.434;6.786;2023-02-07T03:03:50;16.90;;;10.20;;
36855;SDS011;22788;51.434;6.786;2023-02-07T03:06:24;17.60;;;10.57;;
36855;SDS011;22788;51.434;6.786;2023-02-07T03:08:56;21.43;;;11.00;;
36855;SDS011;22788;51.434;6.786;2023-02-07T03:11:25;19.13;;;10.90;;
36855;SDS011;22788;51.434;6.786;2023-02-07T03:13:58;22.00;;;12.13;;
36855;SDS011;22788;51.434;6.786;2023-02-07T03:16:27;27.60;;;11.90;;
36855;SDS011;22788;51.434;6.786;2023-02-07T03:18:56;24.93;;;11.70;;
36855;SDS011;22788;51.434;6.786;2023-02-07T03:21:27;15.83;;;10.23;;
36855;SDS011;22788;51.434;6.786;2023-02-07T03:23:56;21.47;;;11.73;;
36855;SDS011;22788;51.434;6.786;2023-02-07T03:26:22;20.27;;;11.37;;
36855;SDS011;22788;51.434;6.786;2023-02-07T03:28:50;20.97;;;11.23;;
36855;SDS011;22788;51.434;6.786;2023-02-07T03:31:16;24.93;;;11.47;;
36855;SDS011;22788;51.434;6.786;2023-02-07T03:33:45;24.47;;;12.07;;
36855;SDS011;22788;51.434;6.786;2023-02-07T03:36:14;23.90;;;11.97;;
36855;SDS011;22788;51.434;6.786;2023-02-07T03:38:43;20.37;;;11.23;;
36855;SDS011;22788;51.434;6.786;2023-02-07T03:41:10;20.90;;;11.90;;
36855;SDS011;22788;51.434;6.786;2023-02-07T03:43:38;22.37;;;10.93;;
36855;SDS011;22788;51.434;6.786;2023-02-07T03:46:06;22.00;;;11.83;;
36855;SDS011;22788;51.434;6.786;2023-02-07T03:48:33;19.67;;;11.57;;
36855;SDS011;22788;51.434;6.786;2023-02-07T03:50:59;19.07;;;11.33;;
36855;SDS011;22788;51.434;6.786;2023-02-07T03:53:25;20.80;;;11.40;;
36855;SDS011;22788;51.434;6.786;2023-02-07T03:55:53;22.13;;;11.30;;
36855;SDS011;22788;51.434;6.786;2023-02-07T03:58:19;19.17;;;11.37;;
36855;SDS011;22788;51.434;6.786;2023-02-07T04:00:46;20.63;;;11.20;;
36855;SDS011;22788;51.434;6.786;2023-02-07T04:03:12;19.90;;;11.37;;
36855;SDS011;22788;51.434;6.786;2023-02-07T04:05:38;19.97;;;10.23;;
36855;SDS011;22788;51.434;6.786;2023-02-07T04:08:04;20.57;;;10.73;;
36855;SDS011;22788;51.434;6.786;2023-02-07T04:10:31;20.70;;;11.27;;
36855;SDS011;22788;51.434;6.786;2023-02-07T04:12:58;17.77;;;10.47;;
36855;SDS011;22788;51.434;6.786;2023-02-07T04:15:25;21.30;;;11.67;;
36855;SDS011;22788;51.434;6.786;2023-02-07T04:17:51;18.37;;;11.07;;
36855;SDS011;22788;51.434;6.786;2023-02-07T04:20:17;18.57;;;11.13;;
36855;SDS011;22788;51.434;6.786;2023-02-07T04:22:44;20.47;;;11.03;;
36855;SDS011;22788;51.434;6.786;2023-02-07T04:25:10;20.10;;;10.57;;
36855;SDS011;22788;51.434;6.786;2023-02-07T04:27:37;19.80;;;11.23;;
36855;SDS011;22788;51.434;6.786;2023-02-07T04:30:05;17.33;;;10.77;;
36855;SDS011;22788;51.434;6.786;2023-02-07T04:32:32;19.27;;;10.70;;
36855;SDS011;22788;51.434;6.786;2023-02-07T04:34:58;20.40;;;10.53;;
36855;SDS011;22788;51.434;6.786;2023-02-07T04:37:24;20.27;;;10.07;;
36855;SDS011;22788;51.434;6.786;2023-02-07T04:39:50;19.57;;;10.70;;
36855;SDS011;22788;51.434;6.786;2023-02-07T04:42:17;19.27;;;11.13;;
36855;SDS011;22788;51.434;6.786;2023-02-07T04:44:43;18.60;;;11.27;;
36855;SDS011;22788;51.434;6.786;2023-02-07T04:47:11;21.33;;;11.20;;
36855;SDS011;22788;51.434;6.786;2023-02-07T04:49:37;17.93;;;10.80;;
36855;SDS011;22788;51.434;6.786;2023-02-07T04:52:04;21.00;;;11.93;;
36855;SDS011;22788;51.434;6.786;2023-02-07T04:54:30;19.00;;;10.93;;
36855;SDS011;22788;51.434;6.786;2023-02-07T04:56:56;19.13;;;12.00;;
36855;SDS011;22788;51.434;6.786;2023-02-07T04:59:23;19.77;;;11.07;;
36855;SDS011;22788;51.434;6.786;2023-02-07T05:01:49;18.00;;;10.27;;
36855;SDS011;22788;51.434;6.786;2023-02-07T05:04:17;21.57;;;12.10;;
36855;SDS011;22788;51.434;6.786;2023-02-07T05:06:43;22.83;;;11.53;;
36855;SDS011;22788;51.434;6.786;2023-02-07T05:09:09;22.50;;;10.90;;
36855;SDS011;22788;51.434;6.786;2023-02-07T05:11:36;21.83;;;11.67;;
36855;SDS011;22788;51.434;6.786;2023-02-07T05:14:02;21.53;;;11.80;;
36855;SDS011;22788;51.434;6.786;2023-02-07T05:16:28;19.47;;;11.63;;
36855;SDS011;22788;51.434;6.786;2023-02-07T05:18:55;20.67;;;12.07;;
36855;SDS011;22788;51.434;6.786;2023-02-07T05:21:22;19.33;;;11.47;;
36855;SDS011;22788;51.434;6.786;2023-02-07T05:23:49;21.20;;;12.20;;
36855;SDS011;22788;51.434;6.786;2023-02-07T05:26:15;22.70;;;11.73;;
36855;SDS011;22788;51.434;6.786;2023-02-07T05:28:41;19.93;;;11.87;;
36855;SDS011;22788;51.434;6.786;2023-02-07T05:31:08;23.37;;;12.13;;
36855;SDS011;22788;51.434;6.786;2023-02-07T05:33:34;23.17;;;13.10;;
36855;SDS011;22788;51.434;6.786;2023-02-07T05:36:00;20.10;;;10.70;;
36855;SDS011;22788;51.434;6.786;2023-02-07T05:38:28;20.83;;;11.67;;
36855;SDS011;22788;51.434;6.786;2023-02-07T05:40:54;20.20;;;11.67;;
36855;SDS011;22788;51.434;6.786;2023-02-07T05:43:21;22.43;;;12.03;;
36855;SDS011;22788;51.434;6.786;2023-02-07T05:45:47;17.30;;;11.03;;
36855;SDS011;22788;51.434;6.786;2023-02-07T05:48:14;20.60;;;11.60;;
36855;SDS011;22788;51.434;6.786;2023-02-07T05:50:40;20.10;;;12.90;;
36855;SDS011;22788;51.434;6.786;2023-02-07T05:53:06;19.80;;;11.07;;
36855;SDS011;22788;51.434;6.786;2023-02-07T05:55:34;20.60;;;11.33;;
36855;SDS011;22788;51.434;6.786;2023-02-07T05:58:01;18.40;;;11.10;;
36855;SDS011;22788;51.434;6.786;2023-02-07T06:00:27;19.67;;;11.53;;
36855;SDS011;22788;51.434;6.786;2023-02-07T06:02:53;18.83;;;10.90;;
36855;SDS011;22788;51.434;6.786;2023-02-07T06:05:20;17.30;;;10.73;;
36855;SDS011;22788;51.434;6.786;2023-02-07T06:07:46;18.23;;;11.67;;
36855;SDS011;22788;51.434;6.786;2023-02-07T06:10:12;17.70;;;11.30;;
36855;SDS011;22788;51.434;6.786;2023-02-07T06:12:40;19.03;;;11.37;;
36855;SDS011;22788;51.434;6.786;2023-02-07T06:15:07;20.33;;;10.93;;
36855;SDS011;22788;51.434;6.786;2023-02-07T06:17:33;21.47;;;10.97;;
36855;SDS011;22788;51.434;6.786;2023-02-07T06:20:00;18.40;;;11.23;;
36855;SDS011;22788;51.434;6.786;2023-02-07T06:22:26;20.93;;;12.40;;
36855;SDS011;22788;51.434;6.786;2023-02-07T06:24:52;18.67;;;10.93;;
36855;SDS011;22788;51.434;6.786;2023-02-07T06:27:19;20.53;;;11.03;;
36855;SDS011;22788;51.434;6.786;2023-02-07T06:29:46;22.87;;;11.80;;
36855;SDS011;22788;51.434;6.786;2023-02-07T06:32:13;20.10;;;11.67;;
36855;SDS011;22788;51.434;6.786;2023-02-07T06:34:39;18.03;;;11.27;;
36855;SDS011;22788;51.434;6.786;2023-02-07T06:37:05;16.97;;;11.43;;
36855;SDS011;22788;51.434;6.786;2023-02-07T06:39:32;21.33;;;11.70;;
36855;SDS011;22788;51.434;6.786;2023-02-07T06:41:58;20.07;;;11.73;;
36855;SDS011;22788;51.434;6.786;2023-02-07T06:44:24;21.83;;;12.13;;
36855;SDS011;22788;51.434;6.786;2023-02-07T06:46:52;16.73;;;10.97;;
36855;SDS011;22788;51.434;6.786;2023-02-07T06:49:18;23.13;;;11.87;;
36855;SDS011;22788;51.434;6.786;2023-02-07T06:51:45;22.97;;;12.20;;
36855;SDS011;22788;51.434;6.786;2023-02-07T06:54:11;21.47;;;12.13;;
36855;SDS011;22788;51.434;6.786;2023-02-07T06:56:37;22.30;;;12.23;;
36855;SDS011;22788;51.434;6.786;2023-02-07T06:59:04;21.53;;;12.30;;
36855;SDS011;22788;51.434;6.786;2023-02-07T07:01:30;20.67;;;11.23;;
36855;SDS011;22788;51.434;6.786;2023-02-07T07:03:58;23.47;;;12.13;;
36855;SDS011;22788;51.434;6.786;2023-02-07T07:06:24;23.37;;;12.20;;
36855;SDS011;22788;51.434;6.786;2023-02-07T07:08:50;23.03;;;12.50;;
36855;SDS011;22788;51.434;6.786;2023-02-07T07:11:17;25.63;;;12.63;;
36855;SDS011;22788;51.434;6.786;2023-02-07T07:13:43;27.60;;;12.93;;
36855;SDS011;22788;51.434;6.786;2023-02-07T07:16:09;23.97;;;12.77;;
36855;SDS011;22788;51.434;6.786;2023-02-07T07:18:36;25.13;;;12.77;;
36855;SDS011;22788;51.434;6.786;2023-02-07T07:21:04;23.23;;;12.27;;
36855;SDS011;22788;51.434;6.786;2023-02-07T07:23:30;24.63;;;12.20;;
36855;SDS011;22788;51.434;6.786;2023-02-07T07:25:57;23.20;;;13.53;;
36855;SDS011;22788;51.434;6.786;2023-02-07T07:28:23;21.00;;;11.67;;
36855;SDS011;22788;51.434;6.786;2023-02-07T07:30:49;22.10;;;12.23;;
36855;SDS011;22788;51.434;6.786;2023-02-07T07:33:16;23.33;;;12.13;;
36855;SDS011;22788;51.434;6.786;2023-02-07T07:35:42;27.13;;;12.77;;
36855;SDS011;22788;51.434;6.786;2023-02-07T07:38:10;25.57;;;12.53;;
36855;SDS011;22788;51.434;6.786;2023-02-07T07:40:36;25.23;;;13.03;;
36855;SDS011;22788;51.434;6.786;2023-02-07T07:43:02;22.80;;;11.93;;
36855;SDS011;22788;51.434;6.786;2023-02-07T07:45:29;23.47;;;12.10;;
36855;SDS011;22788;51.434;6.786;2023-02-07T07:47:55;23.30;;;11.47;;
36855;SDS011;22788;51.434;6.786;2023-02-07T07:50:21;23.20;;;12.03;;
36855;SDS011;22788;51.434;6.786;2023-02-07T07:52:48;21.53;;;12.43;;
36855;SDS011;22788;51.434;6.786;2023-02-07T07:55:15;20.63;;;12.03;;
36855;SDS011;22788;51.434;6.786;2023-02-07T07:57:42;23.03;;;12.40;;
36855;SDS011;22788;51.434;6.786;2023-02-07T08:00:08;22.27;;;11.57;;
36855;SDS011;22788;51.434;6.786;2023-02-07T08:02:35;22.67;;;12.63;;
36855;SDS011;22788;51.434;6.786;2023-02-07T08:05:01;20.73;;;11.53;;
36855;SDS011;22788;51.434;6.786;2023-02-07T08:07:27;20.07;;;11.57;;
36855;SDS011;22788;51.434;6.786;2023-02-07T08:09:54;20.43;;;10.93;;
36855;SDS011;22788;51.434;6.786;2023-02-07T08:12:21;21.23;;;10.90;;
36855;SDS011;22788;51.434;6.786;2023-02-07T08:14:48;19.63;;;10.37;;
36855;SDS011;22788;51.434;6.786;2023-02-07T08:17:14;21.17;;;10.80;;
36855;SDS011;22788;51.434;6.786;2023-02-07T08:19:40;24.07;;;12.07;;
36855;SDS011;22788;51.434;6.786;2023-02-07T08:22:07;21.07;;;10.50;;
36855;SDS011;22788;51.434;6.786;2023-02-07T08:24:33;21.67;;;11.00;;
36855;SDS011;22788;51.434;6.786;2023-02-07T08:26:59;19.80;;;11.23;;
36855;SDS011;22788;51.434;6.786;2023-02-07T08:29:27;14.40;;;10.13;;
36855;SDS011;22788;51.434;6.786;2023-02-07T08:31:53;17.20;;;9.90;;
36855;SDS011;22788;51.434;6.786;2023-02-07T08:34:20;14.70;;;9.23;;
36855;SDS011;22788;51.434;6.786;2023-02-07T08:36:46;14.93;;;8.93;;
36855;SDS011;22788;51.434;6.786;2023-02-07T08:39:12;19.93;;;9.60;;
36855;SDS011;22788;51.434;6.786;2023-02-07T08:41:39;17.37;;;9.83;;
36855;SDS011;22788;51.434;6.786;2023-02-07T08:44:05;13.87;;;9.27;;
36855;SDS011;22788;51.434;6.786;2023-02-07T08:46:33;16.60;;;10.07;;
36855;SDS011;22788;51.434;6.786;2023-02-07T08:48:59;17.60;;;8.90;;
36855;SDS011;22788;51.434;6.786;2023-02-07T08:51:25;17.67;;;9.30;;
36855;SDS011;22788;51.434;6.786;2023-02-07T08:53:52;15.83;;;8.90;;
36855;SDS011;22788;51.434;6.786;2023-02-07T08:56:18;14.80;;;7.87;;
36855;SDS011;22788;51.434;6.786;2023-02-07T08:58:44;13.77;;;8.70;;
36855;SDS011;22788;51.434;6.786;2023-02-07T09:01:11;15.17;;;9.10;;
36855;SDS011;22788;51.434;6.786;2023-02-07T09:03:39;14.00;;;8.50;;
36855;SDS011;22788;51.434;6.786;2023-02-07T09:06:05;16.83;;;8.77;;
36855;SDS011;22788;51.434;6.786;2023-02-07T09:08:32;13.63;;;8.47;;
36855;SDS011;22788;51.434;6.786;2023-02-07T09:10:58;12.70;;;7.73;;
36855;SDS011;22788;51.434;6.786;2023-02-07T09:13:24;13.70;;;8.20;;
36855;SDS011;22788;51.434;6.786;2023-02-07T09:15:54;15.20;;;9.33;;
36855;SDS011;22788;51.434;6.786;2023-02-07T09:18:20;11.03;;;7.70;;
36855;SDS011;22788;51.434;6.786;2023-02-07T09:20:48;12.47;;;8.73;;
36855;SDS011;22788;51.434;6.786;2023-02-07T09:23:15;12.50;;;7.60;;
36855;SDS011;22788;51.434;6.786;2023-02-07T09:25:41;13.53;;;8.03;;
36855;SDS011;22788;51.434;6.786;2023-02-07T09:28:07;11.40;;;7.37;;
36855;SDS011;22788;51.434;6.786;2023-02-07T09:30:34;13.43;;;7.10;;
36855;SDS011;22788;51.434;6.786;2023-02-07T09:33:00;14.27;;;8.40;;
36855;SDS011;22788;51.434;6.786;2023-02-07T09:35:27;15.10;;;7.93;;
36855;SDS011;22788;51.434;6.786;2023-02-07T09:37:54;10.50;;;6.90;;
36855;SDS011;22788;51.434;6.786;2023-02-07T09:40:21;12.67;;;7.90;;
36855;SDS011;22788;51.434;6.786;2023-02-07T09:42:50;13.03;;;7.50;;
36855;SDS011;22788;51.434;6.786;2023-02-07T09:45:20;13.07;;;7.57;;
36855;SDS011;22788;51.434;6.786;2023-02-07T09:47:49;9.43;;;6.50;;
36855;SDS011;22788;51.434;6.786;2023-02-07T09:50:17;11.70;;;7.67;;
36855;SDS011;22788;51.434;6.786;2023-02-07T09:52:46;11.47;;;6.87;;
36855;SDS011;22788;51.434;6.786;2023-02-07T09:55:15;12.50;;;7.10;;
36855;SDS011;22788;51.434;6.786;2023-02-07T09:57:44;12.20;;;6.80;;
36855;SDS011;22788;51.434;6.786;2023-02-07T10:00:17;9.00;;;6.57;;
36855;SDS011;22788;51.434;6.786;2023-02-07T10:02:45;8.33;;;6.43;;
36855;SDS011;22788;51.434;6.786;2023-02-07T10:05:15;10.83;;;7.10;;
36855;SDS011;22788;51.434;6.786;2023-02-07T10:07:42;9.83;;;6.57;;
36855;SDS011;22788;51.434;6.786;2023-02-07T10:10:12;10.60;;;6.33;;
36855;SDS011;22788;51.434;6.786;2023-02-07T10:15:34;11.07;;;6.77;;
36855;SDS011;22788;51.434;6.786;2023-02-07T10:18:09;9.70;;;6.20;;
36855;SDS011;22788;51.434;6.786;2023-02-07T10:20:40;10.07;;;5.97;;
36855;SDS011;22788;51.434;6.786;2023-02-07T10:23:15;9.73;;;6.57;;
36855;SDS011;22788;51.434;6.786;2023-02-07T10:25:48;10.13;;;6.23;;
36855;SDS011;22788;51.434;6.786;2023-02-07T10:28:30;10.03;;;5.80;;
36855;SDS011;22788;51.434;6.786;2023-02-07T10:31:03;7.50;;;5.77;;
36855;SDS011;22788;51.434;6.786;2023-02-07T10:33:32;7.43;;;6.00;;
36855;SDS011;22788;51.434;6.786;2023-02-07T10:36:00;8.00;;;5.67;;
36855;SDS011;22788;51.434;6.786;2023-02-07T10:38:28;10.57;;;5.90;;
36855;SDS011;22788;51.434;6.786;2023-02-07T10:40:56;7.93;;;4.97;;
36855;SDS011;22788;51.434;6.786;2023-02-07T10:43:26;10.13;;;6.23;;
36855;SDS011;22788;51.434;6.786;2023-02-07T10:45:53;8.43;;;5.53;;
36855;SDS011;22788;51.434;6.786;2023-02-07T10:48:23;8.80;;;5.50;;
36855;SDS011;22788;51.434;6.786;2023-02-07T10:50:49;8.50;;;5.30;;
36855;SDS011;22788;51.434;6.786;2023-02-07T10:55:57;8.03;;;5.40;;
36855;SDS011;22788;51.434;6.786;2023-02-07T10:58:23;8.57;;;5.10;;
36855;SDS011;22788;51.434;6.786;2023-02-07T11:00:50;8.03;;;5.30;;
36855;SDS011;22788;51.434;6.786;2023-02-07T11:03:17;9.67;;;5.10;;
36855;SDS011;22788;51.434;6.786;2023-02-07T11:05:52;6.27;;;4.63;;
36855;SDS011;22788;51.434;6.786;2023-02-07T11:08:21;7.30;;;5.23;;
36855;SDS011;22788;51.434;6.786;2023-02-07T11:10:47;6.43;;;4.87;;
36855;SDS011;22788;51.434;6.786;2023-02-07T11:13:15;8.03;;;4.93;;
36855;SDS011;22788;51.434;6.786;2023-02-07T11:15:46;7.40;;;5.07;;
36855;SDS011;22788;51.434;6.786;2023-02-07T11:18:23;7.90;;;4.33;;
36855;SDS011;22788;51.434;6.786;2023-02-07T11:20:51;5.47;;;4.37;;
36855;SDS011;22788;51.434;6.786;2023-02-07T11:23:17;6.70;;;4.57;;
36855;SDS011;22788;51.434;6.786;2023-02-07T11:25:44;8.33;;;5.00;;
36855;SDS011;22788;51.434;6.786;2023-02-07T11:28:14;6.27;;;4.73;;
36855;SDS011;22788;51.434;6.786;2023-02-07T11:30:42;7.63;;;4.57;;
36855;SDS011;22788;51.434;6.786;2023-02-07T11:33:12;7.20;;;5.10;;
36855;SDS011;22788;51.434;6.786;2023-02-07T11:35:42;5.77;;;4.93;;
36855;SDS011;22788;51.434;6.786;2023-02-07T11:38:26;7.93;;;5.07;;
36855;SDS011;22788;51.434;6.786;2023-02-07T11:40:53;5.67;;;4.43;;
36855;SDS011;22788;51.434;6.786;2023-02-07T11:43:23;9.63;;;4.67;;
36855;SDS011;22788;51.434;6.786;2023-02-07T11:45:50;6.70;;;4.50;;
36855;SDS011;22788;51.434;6.786;2023-02-07T11:48:18;6.13;;;4.50;;
36855;SDS011;22788;51.434;6.786;2023-02-07T11:50:46;5.77;;;4.67;;
36855;SDS011;22788;51.434;6.786;2023-02-07T11:53:19;7.50;;;4.53;;
36855;SDS011;22788;51.434;6.786;2023-02-07T11:55:47;8.77;;;4.63;;
36855;SDS011;22788;51.434;6.786;2023-02-07T11:58:16;5.50;;;4.70;;
36855;SDS011;22788;51.434;6.786;2023-02-07T12:00:43;6.70;;;4.33;;
36855;SDS011;22788;51.434;6.786;2023-02-07T12:03:17;6.67;;;4.50;;
36855;SDS011;22788;51.434;6.786;2023-02-07T12:05:43;6.20;;;4.60;;
36855;SDS011;22788;51.434;6.786;2023-02-07T12:08:13;8.10;;;4.87;;
36855;SDS011;22788;51.434;6.786;2023-02-07T12:10:41;6.57;;;4.53;;
36855;SDS011;22788;51.434;6.786;2023-02-07T12:13:11;5.40;;;4.27;;
36855;SDS011;22788;51.434;6.786;2023-02-07T12:15:40;6.10;;;4.87;;
36855;SDS011;22788;51.434;6.786;2023-02-07T12:18:09;5.17;;;4.33;;
36855;SDS011;22788;51.434;6.786;2023-02-07T12:20:40;7.13;;;5.17;;
36855;SDS011;22788;51.434;6.786;2023-02-07T12:23:11;5.67;;;4.57;;
36855;SDS011;22788;51.434;6.786;2023-02-07T12:25:39;7.73;;;4.97;;
36855;SDS011;22788;51.434;6.786;2023-02-07T12:28:12;6.37;;;4.30;;
36855;SDS011;22788;51.434;6.786;2023-02-07T12:30:41;6.87;;;4.40;;
36855;SDS011;22788;51.434;6.786;2023-02-07T12:33:11;6.53;;;4.73;;
36855;SDS011;22788;51.434;6.786;2023-02-07T12:35:40;5.77;;;4.50;;
36855;SDS011;22788;51.434;6.786;2023-02-07T12:38:12;5.97;;;4.57;;
36855;SDS011;22788;51.434;6.786;2023-02-07T12:40:41;5.90;;;3.93;;
36855;SDS011;22788;51.434;6.786;2023-02-07T12:43:09;5.97;;;4.50;;
36855;SDS011;22788;51.434;6.786;2023-02-07T12:45:43;7.87;;;4.53;;
36855;SDS011;22788;51.434;6.786;2023-02-07T12:48:16;5.87;;;3.83;;
36855;SDS011;22788;51.434;6.786;2023-02-07T12:50:53;6.57;;;4.63;;
36855;SDS011;22788;51.434;6.786;2023-02-07T12:53:27;6.87;;;4.40;;
36855;SDS011;22788;51.434;6.786;2023-02-07T12:55:59;5.50;;;3.97;;
36855;SDS011;22788;51.434;6.786;2023-02-07T12:58:31;5.70;;;4.40;;
36855;SDS011;22788;51.434;6.786;2023-02-07T13:01:06;6.23;;;4.70;;
36855;SDS011;22788;51.434;6.786;2023-02-07T13:03:36;5.47;;;4.47;;
36855;SDS011;22788;51.434;6.786;2023-02-07T13:06:09;4.83;;;3.90;;
36855;SDS011;22788;51.434;6.786;2023-02-07T13:08:40;4.27;;;3.87;;
36855;SDS011;22788;51.434;6.786;2023-02-07T13:11:11;7.10;;;4.67;;
36855;SDS011;22788;51.434;6.786;2023-02-07T13:13:43;6.03;;;4.00;;
36855;SDS011;22788;51.434;6.786;2023-02-07T13:16:15;5.03;;;4.03;;
36855;SDS011;22788;51.434;6.786;2023-02-07T13:18:44;6.13;;;4.37;;
36855;SDS011;22788;51.434;6.786;2023-02-07T13:21:16;5.07;;;4.37;;
36855;SDS011;22788;51.434;6.786;2023-02-07T13:23:45;5.53;;;4.43;;
36855;SDS011;22788;51.434;6.786;2023-02-07T13:26:13;6.40;;;4.10;;
36855;SDS011;22788;51.434;6.786;2023-02-07T13:28:41;6.17;;;4.50;;
36855;SDS011;22788;51.434;6.786;2023-02-07T13:31:09;5.03;;;4.37;;
36855;SDS011;22788;51.434;6.786;2023-02-07T13:33:38;5.40;;;4.17;;
36855;SDS011;22788;51.434;6.786;2023-02-07T13:36:06;5.10;;;3.97;;
36855;SDS011;22788;51.434;6.786;2023-02-07T13:38:39;7.17;;;4.53;;
36855;SDS011;22788;51.434;6.786;2023-02-07T13:41:11;5.90;;;4.00;;
36855;SDS011;22788;51.434;6.786;2023-02-07T13:43:45;5.93;;;4.40;;
36855;SDS011;22788;51.434;6.786;2023-02-07T13:46:18;4.60;;;3.87;;
36855;SDS011;22788;51.434;6.786;2023-02-07T13:48:53;6.47;;;3.97;;
36855;SDS011;22788;51.434;6.786;2023-02-07T13:51:22;9.63;;;4.13;;
36855;SDS011;22788;51.434;6.786;2023-02-07T13:53:54;6.47;;;4.43;;
36855;SDS011;22788;51.434;6.786;2023-02-07T13:56:28;5.73;;;4.43;;
36855;SDS011;22788;51.434;6.786;2023-02-07T13:58:55;5.57;;;4.10;;
36855;SDS011;22788;51.434;6.786;2023-02-07T14:01:22;5.17;;;3.60;;
36855;SDS011;22788;51.434;6.786;2023-02-07T14:04:00;4.67;;;3.77;;
36855;SDS011;22788;51.434;6.786;2023-02-07T14:06:27;7.60;;;5.55;;
36855;SDS011;22788;51.434;6.786;2023-02-07T14:08:56;6.82;;;5.05;;
36855;SDS011;22788;51.434;6.786;2023-02-07T14:11:32;6.13;;;4.40;;
36855;SDS011;22788;51.434;6.786;2023-02-07T14:14:06;8.10;;;3.63;;
36855;SDS011;22788;51.434;6.786;2023-02-07T14:16:43;4.43;;;3.93;;
36855;SDS011;22788;51.434;6.786;2023-02-07T14:19:11;4.63;;;3.73;;
36855;SDS011;22788;51.434;6.786;2023-02-07T14:21:38;7.23;;;3.57;;
36855;SDS011;22788;51.434;6.786;2023-02-07T14:26:57;6.87;;;4.70;;
36855;SDS011;22788;51.434;6.786;2023-02-07T14:29:40;6.30;;;4.17;;
36855;SDS011;22788;51.434;6.786;2023-02-07T14:32:26;5.53;;;4.30;;
36855;SDS011;22788;51.434;6.786;2023-02-07T14:34:58;6.23;;;4.20;;
36855;SDS011;22788;51.434;6.786;2023-02-07T14:37:35;5.53;;;4.60;;
36855;SDS011;22788;51.434;6.786;2023-02-07T14:40:05;6.00;;;4.53;;
36855;SDS011;22788;51.434;6.786;2023-02-07T14:42:31;6.67;;;4.63;;
36855;SDS011;22788;51.434;6.786;2023-02-07T14:44:58;8.70;;;4.20;;
36855;SDS011;22788;51.434;6.786;2023-02-07T14:47:27;5.30;;;4.20;;
36855;SDS011;22788;51.434;6.786;2023-02-07T14:49:54;5.00;;;3.67;;
36855;SDS011;22788;51.434;6.786;2023-02-07T14:52:24;5.10;;;4.17;;
36855;SDS011;22788;51.434;6.786;2023-02-07T14:54:52;4.93;;;4.00;;